sensor_id;sensor_type;location;lat;lon;timestamp;pressure;altitude;pressure_sealevel;temperature;humidity
75788;BME280;64406;50.024;14.492;2023-06-26T00:00:16;98115.38;;;15.53;79.19
75788;BME280;64406;50.024;14.492;2023-06-26T00:03:02;98107.81;;;15.41;80.48
75788;BME280;64406;50.024;14.492;2023-06-26T00:05:28;98101.41;;;15.37;81.27
75788;BME280;64406;50.024;14.492;2023-06-26T00:07:55;98110.94;;;15.26;81.86
75788;BME280;64406;50.024;14.492;2023-06-26T00:10:21;98111.38;;;15.19;82.09
75788;BME280;64406;50.024;14.492;2023-06-26T00:12:47;98102.91;;;15.12;81.90
75788;BME280;64406;50.024;14.492;2023-06-26T00:15:12;98109.75;;;15.18;82.05
75788;BME280;64406;50.024;14.492;2023-06-26T00:17:38;98100.66;;;15.14;82.76
75788;BME280;64406;50.024;14.492;2023-06-26T00:20:04;98093.44;;;15.10;83.53
75788;BME280;64406;50.024;14.492;2023-06-26T00:22:33;98098.88;;;15.10;84.32
75788;BME280;64406;50.024;14.492;2023-06-26T00:24:59;98100.75;;;15.01;85.02
75788;BME280;64406;50.024;14.492;2023-06-26T00:27:24;98100.97;;;15.13;84.87
75788;BME280;64406;50.024;14.492;2023-06-26T00:29:50;98101.94;;;15.17;84.78
75788;BME280;64406;50.024;14.492;2023-06-26T00:32:18;98100.81;;;15.18;84.50
75788;BME280;64406;50.024;14.492;2023-06-26T00:34:43;98098.91;;;15.18;84.37
75788;BME280;64406;50.024;14.492;2023-06-26T00:37:09;98097.50;;;15.21;84.59
75788;BME280;64406;50.024;14.492;2023-06-26T00:39:35;98101.47;;;15.15;84.14
75788;BME280;64406;50.024;14.492;2023-06-26T00:42:00;98092.88;;;15.21;83.37
75788;BME280;64406;50.024;14.492;2023-06-26T00:44:26;98100.47;;;15.11;83.67
75788;BME280;64406;50.024;14.492;2023-06-26T00:46:51;98094.91;;;15.16;84.59
75788;BME280;64406;50.024;14.492;2023-06-26T00:49:18;98098.53;;;15.03;85.50
75788;BME280;64406;50.024;14.492;2023-06-26T00:51:43;98101.88;;;15.00;85.53
75788;BME280;64406;50.024;14.492;2023-06-26T00:54:09;98105.03;;;14.93;85.93
75788;BME280;64406;50.024;14.492;2023-06-26T00:56:35;98106.06;;;14.83;86.02
75788;BME280;64406;50.024;14.492;2023-06-26T00:59:01;98099.03;;;14.82;86.05
75788;BME280;64406;50.024;14.492;2023-06-26T01:01:26;98096.44;;;14.77;86.08
75788;BME280;64406;50.024;14.492;2023-06-26T01:03:53;98102.88;;;14.81;85.72
75788;BME280;64406;50.024;14.492;2023-06-26T01:06:21;98098.03;;;14.78;84.96
75788;BME280;64406;50.024;14.492;2023-06-26T01:08:48;98099.66;;;14.79;84.93
75788;BME280;64406;50.024;14.492;2023-06-26T01:11:14;98097.25;;;14.78;84.61
75788;BME280;64406;50.024;14.492;2023-06-26T01:13:42;98096.44;;;14.77;84.54
75788;BME280;64406;50.024;14.492;2023-06-26T01:16:10;98091.34;;;14.76;84.89
75788;BME280;64406;50.024;14.492;2023-06-26T01:18:37;98091.34;;;14.76;84.77
75788;BME280;64406;50.024;14.492;2023-06-26T01:21:07;98087.34;;;14.73;85.56
75788;BME280;64406;50.024;14.492;2023-06-26T01:26:40;98077.53;;;14.63;85.62
75788;BME280;64406;50.024;14.492;2023-06-26T01:29:07;98077.84;;;14.62;85.72
75788;BME280;64406;50.024;14.492;2023-06-26T01:31:35;98083.06;;;14.58;85.91
75788;BME280;64406;50.024;14.492;2023-06-26T01:34:02;98080.00;;;14.51;86.08
75788;BME280;64406;50.024;14.492;2023-06-26T01:36:27;98085.31;;;14.42;86.13
75788;BME280;64406;50.024;14.492;2023-06-26T01:38:54;98086.22;;;14.38;86.97
75788;BME280;64406;50.024;14.492;2023-06-26T01:41:19;98079.94;;;14.29;87.39
75788;BME280;64406;50.024;14.492;2023-06-26T01:47:01;98080.09;;;14.10;87.46
75788;BME280;64406;50.024;14.492;2023-06-26T01:49:47;98070.59;;;13.99;88.15
75788;BME280;64406;50.024;14.492;2023-06-26T01:52:21;98076.31;;;13.97;88.19
75788;BME280;64406;50.024;14.492;2023-06-26T01:55:01;98077.91;;;13.98;88.59
75788;BME280;64406;50.024;14.492;2023-06-26T01:57:30;98069.94;;;13.93;88.55
75788;BME280;64406;50.024;14.492;2023-06-26T01:59:57;98061.97;;;13.97;88.15
75788;BME280;64406;50.024;14.492;2023-06-26T02:02:24;98071.94;;;13.87;88.57
75788;BME280;64406;50.024;14.492;2023-06-26T02:04:51;98073.22;;;13.90;88.37
75788;BME280;64406;50.024;14.492;2023-06-26T02:07:16;98075.13;;;13.90;88.25
75788;BME280;64406;50.024;14.492;2023-06-26T02:09:42;98064.31;;;13.90;87.86
75788;BME280;64406;50.024;14.492;2023-06-26T02:12:09;98069.78;;;13.98;88.13
75788;BME280;64406;50.024;14.492;2023-06-26T02:14:35;98059.59;;;13.95;87.91
75788;BME280;64406;50.024;14.492;2023-06-26T02:17:00;98061.50;;;13.95;87.90
75788;BME280;64406;50.024;14.492;2023-06-26T02:19:26;98049.16;;;13.88;88.03
75788;BME280;64406;50.024;14.492;2023-06-26T02:21:55;98053.69;;;13.93;88.52
75788;BME280;64406;50.024;14.492;2023-06-26T02:24:21;98054.59;;;13.88;88.66
75788;BME280;64406;50.024;14.492;2023-06-26T02:26:47;98053.25;;;13.86;88.54
75788;BME280;64406;50.024;14.492;2023-06-26T02:29:14;98059.00;;;13.84;88.76
75788;BME280;64406;50.024;14.492;2023-06-26T02:31:40;98058.50;;;13.82;88.88
75788;BME280;64406;50.024;14.492;2023-06-26T02:34:06;98057.00;;;13.76;88.60
75788;BME280;64406;50.024;14.492;2023-06-26T02:36:32;98058.28;;;13.79;88.75
75788;BME280;64406;50.024;14.492;2023-06-26T02:38:57;98063.44;;;13.80;88.53
75788;BME280;64406;50.024;14.492;2023-06-26T02:41:23;98065.72;;;13.73;88.84
75788;BME280;64406;50.024;14.492;2023-06-26T02:43:49;98063.00;;;13.73;89.13
75788;BME280;64406;50.024;14.492;2023-06-26T02:46:14;98059.09;;;13.79;88.46
75788;BME280;64406;50.024;14.492;2023-06-26T02:48:40;98064.03;;;13.77;88.69
75788;BME280;64406;50.024;14.492;2023-06-26T02:51:05;98064.91;;;13.73;89.01
75788;BME280;64406;50.024;14.492;2023-06-26T02:53:31;98070.06;;;13.74;88.92
75788;BME280;64406;50.024;14.492;2023-06-26T02:55:57;98076.34;;;13.83;88.29
75788;BME280;64406;50.024;14.492;2023-06-26T02:58:22;98073.22;;;13.90;88.44
75788;BME280;64406;50.024;14.492;2023-06-26T03:00:48;98074.13;;;13.85;88.60
75788;BME280;64406;50.024;14.492;2023-06-26T03:03:14;98070.53;;;13.90;88.64
75788;BME280;64406;50.024;14.492;2023-06-26T03:05:39;98067.28;;;14.02;88.21
75788;BME280;64406;50.024;14.492;2023-06-26T03:08:05;98068.16;;;14.11;87.83
75788;BME280;64406;50.024;14.492;2023-06-26T03:10:31;98070.66;;;14.21;87.31
75788;BME280;64406;50.024;14.492;2023-06-26T03:12:57;98056.75;;;14.36;86.72
75788;BME280;64406;50.024;14.492;2023-06-26T03:15:22;98062.63;;;14.52;85.83
75788;BME280;64406;50.024;14.492;2023-06-26T03:17:48;98052.00;;;14.42;85.69
75788;BME280;64406;50.024;14.492;2023-06-26T03:20:14;98064.53;;;14.52;86.01
75788;BME280;64406;50.024;14.492;2023-06-26T03:22:41;98059.41;;;14.50;85.61
75788;BME280;64406;50.024;14.492;2023-06-26T03:25:06;98067.56;;;14.50;85.83
75788;BME280;64406;50.024;14.492;2023-06-26T03:27:32;98069.34;;;14.55;85.79
75788;BME280;64406;50.024;14.492;2023-06-26T03:29:58;98068.78;;;14.66;85.54
75788;BME280;64406;50.024;14.492;2023-06-26T03:32:23;98064.09;;;14.81;84.63
75788;BME280;64406;50.024;14.492;2023-06-26T03:34:49;98044.91;;;14.77;84.35
75788;BME280;64406;50.024;14.492;2023-06-26T03:37:14;98056.75;;;14.81;84.62
75788;BME280;64406;50.024;14.492;2023-06-26T03:39:40;98055.44;;;14.79;84.47
75788;BME280;64406;50.024;14.492;2023-06-26T03:42:06;98060.03;;;14.69;85.09
75788;BME280;64406;50.024;14.492;2023-06-26T03:44:32;98062.44;;;14.71;84.92
75788;BME280;64406;50.024;14.492;2023-06-26T03:46:58;98052.69;;;14.70;84.34
75788;BME280;64406;50.024;14.492;2023-06-26T03:49:23;98056.41;;;14.74;84.19
75788;BME280;64406;50.024;14.492;2023-06-26T03:51:49;98054.66;;;14.78;84.18
75788;BME280;64406;50.024;14.492;2023-06-26T03:54:14;98064.34;;;14.71;84.32
75788;BME280;64406;50.024;14.492;2023-06-26T03:56:40;98055.72;;;14.68;84.20
75788;BME280;64406;50.024;14.492;2023-06-26T03:59:06;98057.50;;;14.73;84.73
75788;BME280;64406;50.024;14.492;2023-06-26T04:01:32;98051.56;;;14.71;84.34
75788;BME280;64406;50.024;14.492;2023-06-26T04:04:00;98053.56;;;14.79;84.00
75788;BME280;64406;50.024;14.492;2023-06-26T04:06:25;98064.22;;;14.76;84.33
75788;BME280;64406;50.024;14.492;2023-06-26T04:08:51;98060.06;;;14.78;84.14
75788;BME280;64406;50.024;14.492;2023-06-26T04:11:17;98058.34;;;14.82;84.64
75788;BME280;64406;50.024;14.492;2023-06-26T04:13:42;98058.16;;;14.79;84.67
75788;BME280;64406;50.024;14.492;2023-06-26T04:16:08;98060.44;;;14.85;84.31
75788;BME280;64406;50.024;14.492;2023-06-26T04:18:35;98064.25;;;14.84;84.31
75788;BME280;64406;50.024;14.492;2023-06-26T04:21:12;98063.97;;;14.86;84.60
75788;BME280;64406;50.024;14.492;2023-06-26T04:23:39;98055.06;;;14.94;84.42
75788;BME280;64406;50.024;14.492;2023-06-26T04:26:06;98051.47;;;15.07;83.98
75788;BME280;64406;50.024;14.492;2023-06-26T04:28:35;98043.72;;;15.23;83.08
75788;BME280;64406;50.024;14.492;2023-06-26T04:31:04;98056.59;;;15.57;81.84
75788;BME280;64406;50.024;14.492;2023-06-26T04:33:30;98054.28;;;15.82;80.84
75788;BME280;64406;50.024;14.492;2023-06-26T04:35:55;98046.00;;;16.04;79.73
75788;BME280;64406;50.024;14.492;2023-06-26T04:38:21;98055.59;;;16.10;80.17
75788;BME280;64406;50.024;14.492;2023-06-26T04:40:48;98055.47;;;16.07;79.93
75788;BME280;64406;50.024;14.492;2023-06-26T04:43:13;98056.91;;;16.13;80.09
75788;BME280;64406;50.024;14.492;2023-06-26T04:45:39;98048.56;;;16.09;80.20
75788;BME280;64406;50.024;14.492;2023-06-26T04:48:05;98045.22;;;16.03;80.71
75788;BME280;64406;50.024;14.492;2023-06-26T04:50:31;98045.72;;;16.06;80.43
75788;BME280;64406;50.024;14.492;2023-06-26T04:52:58;98039.78;;;16.03;80.08
75788;BME280;64406;50.024;14.492;2023-06-26T04:55:25;98048.91;;;16.08;80.55
75788;BME280;64406;50.024;14.492;2023-06-26T04:57:50;98045.38;;;16.07;80.89
75788;BME280;64406;50.024;14.492;2023-06-26T05:00:17;98054.34;;;16.08;79.97
75788;BME280;64406;50.024;14.492;2023-06-26T05:02:43;98047.16;;;16.12;80.59
75788;BME280;64406;50.024;14.492;2023-06-26T05:05:09;98051.47;;;16.21;80.12
75788;BME280;64406;50.024;14.492;2023-06-26T05:07:36;98051.75;;;16.37;79.01
75788;BME280;64406;50.024;14.492;2023-06-26T05:10:02;98046.66;;;16.44;78.73
75788;BME280;64406;50.024;14.492;2023-06-26T05:12:28;98049.19;;;16.49;78.77
75788;BME280;64406;50.024;14.492;2023-06-26T05:14:53;98047.44;;;16.62;78.28
75788;BME280;64406;50.024;14.492;2023-06-26T05:17:19;98045.69;;;16.75;78.37
75788;BME280;64406;50.024;14.492;2023-06-26T05:19:45;98046.94;;;16.86;77.34
75788;BME280;64406;50.024;14.492;2023-06-26T05:22:12;98044.34;;;16.90;77.25
75788;BME280;64406;50.024;14.492;2023-06-26T05:24:42;98045.91;;;17.08;76.96
75788;BME280;64406;50.024;14.492;2023-06-26T05:27:11;98044.78;;;17.18;76.63
75788;BME280;64406;50.024;14.492;2023-06-26T05:29:45;98038.03;;;17.24;76.27
75788;BME280;64406;50.024;14.492;2023-06-26T05:32:12;98036.50;;;17.35;75.95
75788;BME280;64406;50.024;14.492;2023-06-26T05:34:41;98038.09;;;17.45;75.79
75788;BME280;64406;50.024;14.492;2023-06-26T05:37:07;98032.78;;;17.48;76.01
75788;BME280;64406;50.024;14.492;2023-06-26T05:39:33;98032.88;;;17.60;75.63
75788;BME280;64406;50.024;14.492;2023-06-26T05:41:59;98035.75;;;17.64;75.61
75788;BME280;64406;50.024;14.492;2023-06-26T05:44:25;98036.97;;;17.75;75.37
75788;BME280;64406;50.024;14.492;2023-06-26T05:46:51;98028.59;;;17.80;75.03
75788;BME280;64406;50.024;14.492;2023-06-26T05:49:16;98029.94;;;17.95;75.29
75788;BME280;64406;50.024;14.492;2023-06-26T05:51:42;98027.63;;;18.06;75.39
75788;BME280;64406;50.024;14.492;2023-06-26T05:54:09;98032.03;;;18.19;75.03
75788;BME280;64406;50.024;14.492;2023-06-26T05:56:34;98034.81;;;18.31;74.49
75788;BME280;64406;50.024;14.492;2023-06-26T05:59:01;98029.88;;;18.45;74.21
75788;BME280;64406;50.024;14.492;2023-06-26T06:01:28;98023.53;;;18.54;74.24
75788;BME280;64406;50.024;14.492;2023-06-26T06:03:54;98024.91;;;18.60;73.75
75788;BME280;64406;50.024;14.492;2023-06-26T06:06:19;98033.63;;;18.74;73.41
75788;BME280;64406;50.024;14.492;2023-06-26T06:08:45;98034.47;;;18.87;72.77
75788;BME280;64406;50.024;14.492;2023-06-26T06:11:13;98025.50;;;18.98;72.06
75788;BME280;64406;50.024;14.492;2023-06-26T06:13:41;98024.97;;;19.17;72.21
75788;BME280;64406;50.024;14.492;2023-06-26T06:16:08;98018.03;;;19.32;71.57
75788;BME280;64406;50.024;14.492;2023-06-26T06:18:40;98030.00;;;19.64;70.19
75788;BME280;64406;50.024;14.492;2023-06-26T06:21:05;98024.97;;;19.78;69.13
75788;BME280;64406;50.024;14.492;2023-06-26T06:23:31;98028.25;;;19.96;68.52
75788;BME280;64406;50.024;14.492;2023-06-26T06:25:57;98023.72;;;20.28;68.12
75788;BME280;64406;50.024;14.492;2023-06-26T06:28:23;98023.91;;;20.48;66.94
75788;BME280;64406;50.024;14.492;2023-06-26T06:30:48;98024.06;;;20.83;65.87
75788;BME280;64406;50.024;14.492;2023-06-26T06:33:14;98019.16;;;21.04;65.03
75788;BME280;64406;50.024;14.492;2023-06-26T06:35:40;98024.03;;;21.27;63.92
75788;BME280;64406;50.024;14.492;2023-06-26T06:38:06;98022.09;;;21.43;63.21
75788;BME280;64406;50.024;14.492;2023-06-26T06:40:32;98024.53;;;21.80;62.30
75788;BME280;64406;50.024;14.492;2023-06-26T06:42:58;98013.03;;;22.09;60.18
75788;BME280;64406;50.024;14.492;2023-06-26T06:45:24;98021.00;;;22.53;58.69
75788;BME280;64406;50.024;14.492;2023-06-26T06:47:53;98020.38;;;22.83;56.00
75788;BME280;64406;50.024;14.492;2023-06-26T06:50:22;98014.88;;;23.02;56.75
75788;BME280;64406;50.024;14.492;2023-06-26T06:52:49;98013.66;;;23.22;55.29
75788;BME280;64406;50.024;14.492;2023-06-26T06:55:14;98004.16;;;23.43;54.28
75788;BME280;64406;50.024;14.492;2023-06-26T06:57:40;98015.44;;;23.60;52.15
75788;BME280;64406;50.024;14.492;2023-06-26T07:00:13;98001.41;;;23.66;51.11
75788;BME280;64406;50.024;14.492;2023-06-26T07:02:43;98006.22;;;23.72;51.44
75788;BME280;64406;50.024;14.492;2023-06-26T07:05:10;98011.72;;;23.72;50.95
75788;BME280;64406;50.024;14.492;2023-06-26T07:07:40;98003.88;;;23.74;49.92
75788;BME280;64406;50.024;14.492;2023-06-26T07:10:08;98021.59;;;23.77;49.42
75788;BME280;64406;50.024;14.492;2023-06-26T07:12:35;98021.38;;;23.63;50.63
75788;BME280;64406;50.024;14.492;2023-06-26T07:15:02;97984.84;;;23.13;50.99
75788;BME280;64406;50.024;14.492;2023-06-26T07:17:28;97991.06;;;23.10;51.36
75788;BME280;64406;50.024;14.492;2023-06-26T07:19:55;98006.31;;;23.07;51.67
75788;BME280;64406;50.024;14.492;2023-06-26T07:22:20;97999.75;;;23.12;52.61
75788;BME280;64406;50.024;14.492;2023-06-26T07:24:47;98005.88;;;23.28;51.47
75788;BME280;64406;50.024;14.492;2023-06-26T07:27:15;98010.53;;;23.24;52.37
75788;BME280;64406;50.024;14.492;2023-06-26T07:29:44;98003.84;;;22.98;53.38
75788;BME280;64406;50.024;14.492;2023-06-26T07:32:13;97991.97;;;22.94;51.78
75788;BME280;64406;50.024;14.492;2023-06-26T07:34:39;98005.13;;;22.85;51.90
75788;BME280;64406;50.024;14.492;2023-06-26T07:37:09;98010.13;;;22.99;51.27
75788;BME280;64406;50.024;14.492;2023-06-26T07:42:35;97981.56;;;22.84;51.94
75788;BME280;64406;50.024;14.492;2023-06-26T07:45:08;97949.81;;;22.64;51.66
75788;BME280;64406;50.024;14.492;2023-06-26T07:47:44;97991.09;;;22.90;52.90
75788;BME280;64406;50.024;14.492;2023-06-26T07:50:12;97978.50;;;22.66;52.40
75788;BME280;64406;50.024;14.492;2023-06-26T07:52:44;97991.38;;;22.62;52.96
75788;BME280;64406;50.024;14.492;2023-06-26T07:55:10;97998.81;;;22.62;52.09
75788;BME280;64406;50.024;14.492;2023-06-26T07:57:38;97993.91;;;22.51;52.07
75788;BME280;64406;50.024;14.492;2023-06-26T08:00:08;98006.66;;;22.83;52.21
75788;BME280;64406;50.024;14.492;2023-06-26T08:02:40;97999.06;;;22.95;51.71
75788;BME280;64406;50.024;14.492;2023-06-26T08:05:08;97995.38;;;23.11;51.74
75788;BME280;64406;50.024;14.492;2023-06-26T08:07:34;97984.88;;;23.16;50.81
75788;BME280;64406;50.024;14.492;2023-06-26T08:09:59;97988.13;;;23.22;50.60
75788;BME280;64406;50.024;14.492;2023-06-26T08:12:25;97994.13;;;23.04;50.96
75788;BME280;64406;50.024;14.492;2023-06-26T08:14:53;97993.44;;;22.69;51.55
75788;BME280;64406;50.024;14.492;2023-06-26T08:17:19;97995.16;;;22.77;51.85
75788;BME280;64406;50.024;14.492;2023-06-26T08:19:48;97993.03;;;22.86;53.37
75788;BME280;64406;50.024;14.492;2023-06-26T08:22:17;97980.63;;;22.96;51.91
75788;BME280;64406;50.024;14.492;2023-06-26T08:24:44;97994.00;;;23.20;51.28
75788;BME280;64406;50.024;14.492;2023-06-26T08:27:12;97987.69;;;23.20;50.10
75788;BME280;64406;50.024;14.492;2023-06-26T08:32:39;97977.81;;;23.42;49.09
75788;BME280;64406;50.024;14.492;2023-06-26T08:35:33;97941.47;;;23.25;49.37
75788;BME280;64406;50.024;14.492;2023-06-26T08:38:07;97993.53;;;23.64;49.31
75788;BME280;64406;50.024;14.492;2023-06-26T08:40:54;97950.97;;;23.58;49.01
75788;BME280;64406;50.024;14.492;2023-06-26T08:43:20;97956.91;;;23.60;47.93
75788;BME280;64406;50.024;14.492;2023-06-26T08:45:49;97941.78;;;23.73;49.21
75788;BME280;64406;50.024;14.492;2023-06-26T08:48:17;97978.53;;;24.18;47.84
75788;BME280;64406;50.024;14.492;2023-06-26T08:50:44;97950.56;;;24.16;46.10
75788;BME280;64406;50.024;14.492;2023-06-26T08:56:02;97943.41;;;24.41;43.54
75788;BME280;64406;50.024;14.492;2023-06-26T08:58:36;97936.00;;;24.46;42.61
75788;BME280;64406;50.024;14.492;2023-06-26T09:01:13;97967.34;;;24.34;42.59
75788;BME280;64406;50.024;14.492;2023-06-26T09:03:48;97980.09;;;24.49;43.09
75788;BME280;64406;50.024;14.492;2023-06-26T09:06:14;97965.44;;;24.38;43.23
75788;BME280;64406;50.024;14.492;2023-06-26T09:08:40;97976.28;;;24.61;44.75
75788;BME280;64406;50.024;14.492;2023-06-26T09:11:06;97936.63;;;24.32;44.65
75788;BME280;64406;50.024;14.492;2023-06-26T09:13:32;97976.66;;;24.59;46.19
75788;BME280;64406;50.024;14.492;2023-06-26T09:16:14;97976.19;;;24.50;44.58
75788;BME280;64406;50.024;14.492;2023-06-26T09:18:41;97958.81;;;24.12;45.41
75788;BME280;64406;50.024;14.492;2023-06-26T09:21:11;97966.91;;;24.32;45.23
75788;BME280;64406;50.024;14.492;2023-06-26T09:23:39;97963.28;;;24.58;46.22
75788;BME280;64406;50.024;14.492;2023-06-26T09:26:06;97957.84;;;24.65;43.77
75788;BME280;64406;50.024;14.492;2023-06-26T09:28:34;97961.19;;;24.88;44.88
75788;BME280;64406;50.024;14.492;2023-06-26T09:31:01;97961.59;;;24.87;43.24
75788;BME280;64406;50.024;14.492;2023-06-26T09:33:41;97959.66;;;24.91;43.98
75788;BME280;64406;50.024;14.492;2023-06-26T09:36:39;97917.78;;;24.75;43.89
75788;BME280;64406;50.024;14.492;2023-06-26T09:39:11;97951.94;;;25.07;43.54
75788;BME280;64406;50.024;14.492;2023-06-26T09:41:43;97892.00;;;25.01;42.37
75788;BME280;64406;50.024;14.492;2023-06-26T09:44:14;97890.91;;;25.05;43.12
75788;BME280;64406;50.024;14.492;2023-06-26T09:46:58;97913.94;;;25.31;42.98
75788;BME280;64406;50.024;14.492;2023-06-26T09:49:31;97882.66;;;25.09;42.27
75788;BME280;64406;50.024;14.492;2023-06-26T09:52:00;97937.97;;;25.34;41.17
75788;BME280;64406;50.024;14.492;2023-06-26T09:54:28;97923.13;;;25.53;41.47
75788;BME280;64406;50.024;14.492;2023-06-26T09:57:12;97917.22;;;25.54;42.07
75788;BME280;64406;50.024;14.492;2023-06-26T09:59:46;97898.34;;;25.56;41.59
75788;BME280;64406;50.024;14.492;2023-06-26T10:02:19;97886.19;;;25.71;41.13
75788;BME280;64406;50.024;14.492;2023-06-26T10:04:46;97909.16;;;25.93;41.00
75788;BME280;64406;50.024;14.492;2023-06-26T10:07:13;97898.94;;;26.01;41.56
75788;BME280;64406;50.024;14.492;2023-06-26T10:09:41;97908.34;;;25.82;40.19
75788;BME280;64406;50.024;14.492;2023-06-26T10:12:29;97902.00;;;25.82;40.38
75788;BME280;64406;50.024;14.492;2023-06-26T10:14:56;97865.47;;;26.10;40.57
75788;BME280;64406;50.024;14.492;2023-06-26T10:17:25;97894.78;;;26.57;40.34
75788;BME280;64406;50.024;14.492;2023-06-26T10:19:55;97899.56;;;26.89;39.54
75788;BME280;64406;50.024;14.492;2023-06-26T10:22:27;97873.88;;;27.02;39.81
75788;BME280;64406;50.024;14.492;2023-06-26T10:24:58;97848.59;;;27.22;38.37
75788;BME280;64406;50.024;14.492;2023-06-26T10:27:29;97880.09;;;27.67;38.31
75788;BME280;64406;50.024;14.492;2023-06-26T10:30:03;97880.16;;;27.42;38.57
75788;BME280;64406;50.024;14.492;2023-06-26T10:32:31;97877.00;;;27.33;38.35
75788;BME280;64406;50.024;14.492;2023-06-26T10:35:01;97868.28;;;27.45;39.49
75788;BME280;64406;50.024;14.492;2023-06-26T10:37:48;97873.88;;;26.88;38.01
75788;BME280;64406;50.024;14.492;2023-06-26T10:40:22;97824.44;;;26.12;38.47
75788;BME280;64406;50.024;14.492;2023-06-26T10:42:48;97862.00;;;26.73;38.63
75788;BME280;64406;50.024;14.492;2023-06-26T10:45:15;97877.44;;;26.89;38.33
75788;BME280;64406;50.024;14.492;2023-06-26T10:47:48;97867.56;;;27.09;37.08
75788;BME280;64406;50.024;14.492;2023-06-26T10:53:07;97861.13;;;27.69;37.10
75788;BME280;64406;50.024;14.492;2023-06-26T10:55:36;97850.81;;;27.73;36.82
75788;BME280;64406;50.024;14.492;2023-06-26T10:58:02;97863.97;;;27.37;36.91
75788;BME280;64406;50.024;14.492;2023-06-26T11:00:31;97852.09;;;27.40;36.80
75788;BME280;64406;50.024;14.492;2023-06-26T11:03:01;97847.66;;;27.64;35.60
75788;BME280;64406;50.024;14.492;2023-06-26T11:05:28;97850.44;;;27.75;35.55
75788;BME280;64406;50.024;14.492;2023-06-26T11:08:06;97850.03;;;27.76;36.80
75788;BME280;64406;50.024;14.492;2023-06-26T11:13:16;97836.09;;;27.94;36.03
75788;BME280;64406;50.024;14.492;2023-06-26T11:15:44;97846.94;;;27.49;34.25
75788;BME280;64406;50.024;14.492;2023-06-26T11:18:10;97843.69;;;27.72;35.13
75788;BME280;64406;50.024;14.492;2023-06-26T11:20:38;97834.44;;;28.07;33.54
75788;BME280;64406;50.024;14.492;2023-06-26T11:23:05;97840.31;;;28.20;33.62
75788;BME280;64406;50.024;14.492;2023-06-26T11:25:38;97838.06;;;27.97;34.02
75788;BME280;64406;50.024;14.492;2023-06-26T11:28:09;97842.81;;;27.97;33.94
75788;BME280;64406;50.024;14.492;2023-06-26T11:30:35;97781.06;;;28.07;33.56
75788;BME280;64406;50.024;14.492;2023-06-26T11:33:03;97829.97;;;28.24;33.38
75788;BME280;64406;50.024;14.492;2023-06-26T11:35:29;97826.84;;;28.78;33.60
75788;BME280;64406;50.024;14.492;2023-06-26T11:37:56;97830.69;;;28.42;32.50
75788;BME280;64406;50.024;14.492;2023-06-26T11:40:28;97825.19;;;28.35;33.20
75788;BME280;64406;50.024;14.492;2023-06-26T11:42:58;97824.72;;;28.96;32.09
75788;BME280;64406;50.024;14.492;2023-06-26T11:45:24;97833.22;;;28.71;32.17
75788;BME280;64406;50.024;14.492;2023-06-26T11:47:55;97834.28;;;28.39;32.14
75788;BME280;64406;50.024;14.492;2023-06-26T11:50:22;97818.38;;;28.99;31.45
75788;BME280;64406;50.024;14.492;2023-06-26T11:52:58;97807.34;;;29.64;33.03
75788;BME280;64406;50.024;14.492;2023-06-26T11:55:24;97807.69;;;29.69;29.97
75788;BME280;64406;50.024;14.492;2023-06-26T11:57:53;97819.03;;;29.44;29.61
75788;BME280;64406;50.024;14.492;2023-06-26T12:00:20;97796.34;;;29.87;31.03
75788;BME280;64406;50.024;14.492;2023-06-26T12:02:48;97811.13;;;29.81;29.49
75788;BME280;64406;50.024;14.492;2023-06-26T12:05:18;97806.72;;;29.52;29.85
75788;BME280;64406;50.024;14.492;2023-06-26T12:07:47;97800.53;;;29.72;31.08
75788;BME280;64406;50.024;14.492;2023-06-26T12:10:14;97797.34;;;30.31;30.45
75788;BME280;64406;50.024;14.492;2023-06-26T12:12:41;97783.22;;;29.91;30.37
75788;BME280;64406;50.024;14.492;2023-06-26T12:15:08;97784.25;;;29.70;30.61
75788;BME280;64406;50.024;14.492;2023-06-26T12:17:39;97797.53;;;29.21;31.88
75788;BME280;64406;50.024;14.492;2023-06-26T12:20:05;97791.78;;;29.73;32.37
75788;BME280;64406;50.024;14.492;2023-06-26T12:22:35;97784.03;;;30.19;29.92
75788;BME280;64406;50.024;14.492;2023-06-26T12:25:01;97781.63;;;29.60;30.87
75788;BME280;64406;50.024;14.492;2023-06-26T12:27:27;97782.50;;;29.53;32.00
75788;BME280;64406;50.024;14.492;2023-06-26T12:29:53;97782.75;;;28.94;32.11
75788;BME280;64406;50.024;14.492;2023-06-26T12:32:23;97772.00;;;29.34;30.73
75788;BME280;64406;50.024;14.492;2023-06-26T12:34:50;97788.09;;;29.12;31.17
75788;BME280;64406;50.024;14.492;2023-06-26T12:37:16;97770.50;;;30.71;27.88
75788;BME280;64406;50.024;14.492;2023-06-26T12:39:52;97768.66;;;33.31;25.00
75788;BME280;64406;50.024;14.492;2023-06-26T12:42:23;97756.00;;;35.61;22.88
75788;BME280;64406;50.024;14.492;2023-06-26T12:44:50;97752.16;;;35.99;21.76
75788;BME280;64406;50.024;14.492;2023-06-26T12:47:17;97754.69;;;36.55;20.73
75788;BME280;64406;50.024;14.492;2023-06-26T12:49:45;97745.91;;;34.12;23.50
75788;BME280;64406;50.024;14.492;2023-06-26T12:52:13;97760.44;;;34.45;23.08
75788;BME280;64406;50.024;14.492;2023-06-26T12:54:40;97731.00;;;37.29;20.11
75788;BME280;64406;50.024;14.492;2023-06-26T12:57:06;97745.56;;;33.97;22.17
75788;BME280;64406;50.024;14.492;2023-06-26T12:59:33;97732.53;;;35.02;21.43
75788;BME280;64406;50.024;14.492;2023-06-26T13:02:00;97735.25;;;38.37;19.45
75788;BME280;64406;50.024;14.492;2023-06-26T13:04:25;97735.59;;;33.00;23.48
75788;BME280;64406;50.024;14.492;2023-06-26T13:06:52;97741.41;;;32.77;25.45
75788;BME280;64406;50.024;14.492;2023-06-26T13:09:22;97740.91;;;33.11;24.89
75788;BME280;64406;50.024;14.492;2023-06-26T13:11:49;97738.47;;;31.82;25.35
75788;BME280;64406;50.024;14.492;2023-06-26T13:14:15;97729.56;;;34.23;22.69